createdAt,value
2019-02-15T00:02:36.576Z,0.60
2019-02-15T00:05:17.788Z,0.50
2019-02-15T00:10:40.889Z,0.40
2019-02-15T00:13:22.032Z,0.40
2019-02-15T00:16:02.679Z,0.40
2019-02-15T00:19:02.376Z,0.50
2019-02-15T00:21:47.877Z,0.50
2019-02-15T00:24:28.576Z,0.60
2019-02-15T00:27:09.249Z,0.60
2019-02-15T00:29:49.936Z,0.70
2019-02-15T00:32:31.137Z,0.80
2019-02-15T00:35:11.813Z,0.70
2019-02-15T00:37:52.498Z,0.60
2019-02-15T00:40:33.271Z,0.50
2019-02-15T00:43:22.093Z,0.50
2019-02-15T00:49:06.936Z,0.50
2019-02-15T00:52:09.861Z,0.50
2019-02-15T00:55:04.349Z,0.40
2019-02-15T00:57:59.281Z,0.40
2019-02-15T01:00:59.313Z,0.30
2019-02-15T01:03:58.993Z,0.40
2019-02-15T01:06:58.670Z,0.30
2019-02-15T01:09:49.577Z,0.40
2019-02-15T01:15:31.248Z,0.40
2019-02-15T01:18:11.881Z,0.40
2019-02-15T01:20:53.049Z,0.40
2019-02-15T01:23:33.493Z,0.50
2019-02-15T01:29:45.805Z,0.60
2019-02-15T01:32:33.118Z,0.60
2019-02-15T01:35:39.064Z,0.50
2019-02-15T01:38:41.375Z,0.40
2019-02-15T01:41:30.501Z,0.30
2019-02-15T01:44:23.752Z,0.20
2019-02-15T01:47:04.636Z,0.20
2019-02-15T01:49:46.040Z,0.10
2019-02-15T01:52:26.832Z,0.00
2019-02-15T01:55:07.638Z,0.00
2019-02-15T01:57:36.675Z,0.10
2019-02-15T02:03:28.993Z,0.10
2019-02-15T02:06:09.770Z,0.10
2019-02-15T02:08:51.743Z,0.10
2019-02-15T02:11:35.246Z,0.00
2019-02-15T02:14:16.318Z,-0.10
2019-02-15T02:16:57.604Z,0.00
2019-02-15T02:19:38.536Z,0.00
2019-02-15T02:22:19.429Z,0.00
2019-02-15T02:25:00.323Z,0.00
2019-02-15T02:27:41.352Z,0.10
2019-02-15T02:30:22.261Z,0.10
2019-02-15T02:33:02.947Z,0.00
2019-02-15T02:35:43.704Z,-0.10
2019-02-15T02:38:24.799Z,-0.10
2019-02-15T02:41:05.593Z,-0.10
2019-02-15T02:43:46.792Z,-0.10
2019-02-15T02:46:27.636Z,-0.20
2019-02-15T02:48:56.705Z,-0.20
2019-02-15T02:51:44.864Z,-0.20
2019-02-15T02:54:27.165Z,-0.30
2019-02-15T02:57:08.014Z,-0.30
2019-02-15T02:59:48.889Z,-0.40
2019-02-15T03:02:29.776Z,-0.40
2019-02-15T03:05:10.885Z,-0.40
2019-02-15T03:07:51.477Z,-0.40
2019-02-15T03:10:32.664Z,-0.40
2019-02-15T03:13:13.522Z,-0.40
2019-02-15T03:15:54.475Z,-0.40
2019-02-15T03:18:37.134Z,-0.40
2019-02-15T03:21:19.322Z,-0.50
2019-02-15T03:24:00.039Z,-0.60
2019-02-15T03:26:40.744Z,-0.60
2019-02-15T03:29:21.308Z,-0.60
2019-02-15T03:32:02.190Z,-0.60
2019-02-15T03:34:43.078Z,-0.60
2019-02-15T03:40:48.273Z,-0.60
2019-02-15T03:43:29.560Z,-0.60
2019-02-15T03:46:10.372Z,-0.50
2019-02-15T03:48:51.343Z,-0.50
2019-02-15T03:51:32.255Z,-0.40
2019-02-15T03:54:13.071Z,-0.50
2019-02-15T03:56:54.165Z,-0.60
2019-02-15T03:59:37.502Z,-0.70
2019-02-15T04:02:18.295Z,-0.70
2019-02-15T04:04:59.077Z,-0.70
2019-02-15T04:07:39.908Z,-0.70
2019-02-15T04:10:20.984Z,-0.70
2019-02-15T04:13:01.585Z,-0.70
2019-02-15T04:15:42.399Z,-0.80
2019-02-15T04:18:22.843Z,-0.80
2019-02-15T04:21:06.096Z,-0.80
2019-02-15T04:23:46.515Z,-0.70
2019-02-15T04:26:27.214Z,-0.70
2019-02-15T04:29:08.229Z,-0.70
2019-02-15T04:31:48.966Z,-0.60
2019-02-15T04:34:29.713Z,-0.70
2019-02-15T04:37:10.583Z,-0.70
2019-02-15T04:39:51.422Z,-0.80
2019-02-15T04:42:33.994Z,-0.70
2019-02-15T04:45:15.371Z,-0.80
2019-02-15T04:47:55.969Z,-0.70
2019-02-15T04:50:39.600Z,-0.70
2019-02-15T04:53:19.964Z,-0.70
2019-02-15T04:56:00.942Z,-0.80
2019-02-15T04:58:41.626Z,-0.80
2019-02-15T05:01:22.707Z,-0.80
2019-02-15T05:04:04.472Z,-0.80
2019-02-15T05:06:45.265Z,-0.80
2019-02-15T05:09:26.420Z,-0.80
2019-02-15T05:12:06.961Z,-0.90
2019-02-15T05:14:53.236Z,-0.90
2019-02-15T05:17:30.541Z,-0.90
2019-02-15T05:20:11.293Z,-0.80
2019-02-15T05:22:52.240Z,-0.80
2019-02-15T05:25:32.920Z,-0.80
2019-02-15T05:28:16.315Z,-0.90
2019-02-15T05:30:57.299Z,-0.90
2019-02-15T05:33:39.194Z,-0.90
2019-02-15T05:38:58.130Z,-1.00
2019-02-15T05:41:38.967Z,-1.10
2019-02-15T05:44:22.745Z,-0.90
2019-02-15T05:47:04.051Z,-0.80
2019-02-15T05:49:45.041Z,-0.80
2019-02-15T05:52:25.940Z,-0.90
2019-02-15T05:55:06.519Z,-1.10
2019-02-15T05:57:47.300Z,-1.10
2019-02-15T06:00:36.790Z,-1.10
2019-02-15T06:03:13.614Z,-1.00
2019-02-15T06:08:34.008Z,-1.10
2019-02-15T06:11:14.987Z,-1.10
2019-02-15T06:13:56.006Z,-1.10
2019-02-15T06:16:36.580Z,-1.10
2019-02-15T06:19:17.268Z,-1.00
2019-02-15T06:21:58.041Z,-1.00
2019-02-15T06:24:38.893Z,-1.00
2019-02-15T06:27:19.604Z,-1.00
2019-02-15T06:30:00.407Z,-1.00
2019-02-15T06:32:40.821Z,-1.00
2019-02-15T06:35:23.612Z,-0.90
2019-02-15T06:38:04.546Z,-0.90
2019-02-15T06:40:45.256Z,-0.90
2019-02-15T17:23:17.213Z,4.90
2019-02-15T17:26:00.459Z,4.80
2019-02-15T17:28:42.552Z,4.70
2019-02-15T17:31:23.772Z,4.70
2019-02-15T17:34:04.901Z,4.60
2019-02-15T17:36:45.689Z,4.70
2019-02-15T17:39:26.560Z,4.60
2019-02-15T17:42:07.885Z,4.50
2019-02-15T17:44:50.746Z,4.50
2019-02-15T17:47:31.705Z,4.30
2019-02-15T17:50:12.609Z,4.20
2019-02-15T17:52:53.190Z,4.10
2019-02-15T17:55:33.903Z,4.10
2019-02-15T17:58:14.616Z,4.10
2019-02-15T18:00:55.730Z,4.10
2019-02-15T18:03:36.460Z,4.10
2019-02-15T18:06:17.599Z,4.00
2019-02-15T18:09:01.020Z,4.00
2019-02-15T18:11:41.834Z,3.90
2019-02-15T18:14:22.908Z,3.80
2019-02-15T18:17:03.909Z,3.70
2019-02-15T18:19:47.266Z,3.70
2019-02-15T18:22:27.764Z,3.60
2019-02-15T18:25:08.920Z,3.60
2019-02-15T18:27:50.139Z,3.70
2019-02-15T18:30:30.951Z,3.70
2019-02-15T18:33:11.408Z,3.70
2019-02-15T18:35:53.666Z,3.60
2019-02-15T18:38:34.158Z,3.50
2019-02-15T18:41:14.982Z,3.40
2019-02-15T18:43:55.844Z,3.40
2019-02-15T18:46:36.620Z,3.40
2019-02-15T18:49:19.647Z,3.40
2019-02-15T18:52:00.967Z,3.30
2019-02-15T18:54:41.916Z,3.20
2019-02-15T18:57:22.548Z,3.10
2019-02-15T19:00:05.698Z,3.10
2019-02-15T19:02:46.900Z,3.10
2019-02-15T19:05:27.722Z,3.00
2019-02-15T19:08:08.553Z,3.00
2019-02-15T19:10:52.022Z,2.90
2019-02-15T19:13:33.116Z,2.90
2019-02-15T19:16:13.914Z,2.90
2019-02-15T19:18:54.513Z,2.90
2019-02-15T19:21:35.278Z,2.90
2019-02-15T19:24:16.233Z,2.90
2019-02-15T19:26:57.488Z,3.00
2019-02-15T19:29:38.876Z,3.10
2019-02-15T19:32:19.484Z,3.10
2019-02-15T19:35:00.545Z,3.20
2019-02-15T19:37:41.044Z,3.20
2019-02-15T19:40:21.823Z,3.10
2019-02-15T19:43:02.523Z,3.00
2019-02-15T19:45:43.197Z,2.90
2019-02-15T19:48:23.970Z,2.90
2019-02-15T19:51:04.618Z,2.80
2019-02-15T19:53:45.227Z,2.80
2019-02-15T19:56:26.272Z,2.80
2019-02-15T19:59:07.350Z,2.70
2019-02-15T20:01:48.536Z,2.60
2019-02-15T20:04:17.523Z,2.70
2019-02-15T20:07:05.716Z,2.70
2019-02-15T20:09:53.828Z,2.70
2019-02-15T20:12:37.190Z,2.60
2019-02-15T20:15:18.352Z,2.50
2019-02-15T20:17:59.404Z,2.50
2019-02-15T20:20:40.216Z,2.50
2019-02-15T20:23:20.940Z,2.50
2019-02-15T20:26:01.817Z,2.40
2019-02-15T20:28:42.807Z,2.30
2019-02-15T20:31:23.539Z,2.30
2019-02-15T20:33:52.673Z,2.20
2019-02-15T20:36:40.845Z,2.20
2019-02-15T20:39:21.816Z,2.20
2019-02-15T20:44:41.602Z,2.20
2019-02-15T20:50:05.717Z,2.10
2019-02-15T20:52:46.698Z,2.10
2019-02-15T20:55:27.108Z,2.10
2019-02-15T20:58:08.010Z,2.10
2019-02-15T21:00:51.060Z,2.10
2019-02-15T21:03:31.394Z,2.10
2019-02-15T21:06:12.286Z,2.10
2019-02-15T21:08:53.228Z,2.00
2019-02-15T21:11:34.051Z,1.90
2019-02-15T21:14:15.124Z,1.90
2019-02-15T21:16:56.021Z,1.80
2019-02-15T21:19:36.803Z,1.80
2019-02-15T21:22:17.753Z,1.80
2019-02-15T21:24:46.742Z,1.70
2019-02-15T21:27:34.903Z,1.70
2019-02-15T21:30:23.117Z,1.70
2019-02-15T21:33:03.886Z,1.70
2019-02-15T21:35:44.468Z,1.80
2019-02-15T21:38:24.816Z,1.80
2019-02-15T21:41:05.581Z,1.70
2019-02-15T21:43:46.054Z,1.60
2019-02-15T21:46:26.879Z,1.60
2019-02-15T21:49:07.542Z,1.60
2019-02-15T21:51:48.384Z,1.50
2019-02-15T21:54:29.139Z,1.50
2019-02-15T21:57:10.973Z,1.30
2019-02-15T21:59:52.745Z,1.30
2019-02-15T22:02:33.829Z,1.30
2019-02-15T22:05:14.384Z,1.40
2019-02-15T22:07:55.137Z,1.40
2019-02-15T22:10:35.823Z,1.40
2019-02-15T22:13:04.881Z,1.30
2019-02-15T22:15:53.030Z,1.30
2019-02-15T22:18:41.208Z,1.30
2019-02-15T22:21:22.088Z,1.30
2019-02-15T22:26:46.363Z,1.40
2019-02-15T22:29:27.167Z,1.40
2019-02-15T22:32:08.272Z,1.40
2019-02-15T22:34:50.626Z,1.40
2019-02-15T22:37:31.164Z,1.40
2019-02-15T22:40:49.648Z,1.40
2019-02-15T22:43:30.959Z,1.30
2019-02-15T22:46:11.556Z,1.30
2019-02-15T22:48:52.966Z,1.30
2019-02-15T22:51:22.094Z,1.30
2019-02-15T22:54:10.208Z,1.30
2019-02-15T22:56:50.649Z,1.30
2019-02-15T22:59:31.796Z,1.20
2019-02-15T23:02:12.446Z,1.20
2019-02-15T23:04:53.156Z,1.20
2019-02-15T23:10:24.557Z,1.30
2019-02-15T23:13:05.844Z,1.30
2019-02-15T23:15:46.507Z,1.20
2019-02-15T23:18:15.584Z,1.20
2019-02-15T23:21:03.848Z,1.10
2019-02-15T23:23:50.715Z,1.10
2019-02-15T23:26:33.005Z,1.00
2019-02-15T23:29:14.191Z,1.00
2019-02-15T23:31:55.550Z,0.90
2019-02-15T23:34:36.441Z,0.90
2019-02-15T23:37:17.087Z,0.80
2019-02-15T23:39:46.126Z,0.80
2019-02-15T23:42:34.307Z,0.90
2019-02-15T23:45:24.142Z,0.90
2019-02-15T23:48:05.162Z,0.90
2019-02-15T23:50:54.249Z,0.90
2019-02-15T23:53:28.813Z,0.90
2019-02-15T23:56:10.228Z,0.90
2019-02-15T23:58:51.600Z,0.80
